createdAt,value
2023-04-24T00:11:19.794Z,9.87
2023-04-24T00:31:17.148Z,9.97
2023-04-24T00:57:01.585Z,11.30
2023-04-24T01:22:12.944Z,11.70
2023-04-24T01:52:47.333Z,11.00
2023-04-24T02:17:24.556Z,12.77
2023-04-24T02:37:45.055Z,12.90
2023-04-24T03:08:48.313Z,13.10
2023-04-24T03:13:07.686Z,13.73
2023-04-24T03:44:11.876Z,14.07
2023-04-24T04:04:04.139Z,14.50
2023-04-24T04:34:04.419Z,13.07
2023-04-24T04:54:10.734Z,12.63
2023-04-24T05:54:40.280Z,13.33
2023-04-24T06:15:01.389Z,11.60
2023-04-24T06:40:46.157Z,11.37
2023-04-24T07:00:52.350Z,10.67
2023-04-24T07:26:37.219Z,11.23
2023-04-24T08:12:06.808Z,9.52
2023-04-24T08:32:08.719Z,8.75
2023-04-24T09:07:55.662Z,9.23
2023-04-24T09:28:02.604Z,8.63
2023-04-24T09:58:15.339Z,7.22
2023-04-24T10:18:23.428Z,9.07
2023-04-24T10:44:12.913Z,7.70
2023-04-24T11:09:32.414Z,7.30
2023-04-24T11:40:14.142Z,6.47
2023-04-24T12:05:02.135Z,5.90
2023-04-24T12:35:54.348Z,7.50
2023-04-24T13:05:43.364Z,5.50
2023-04-24T13:31:07.535Z,4.88
2023-04-24T13:46:49.928Z,4.47
2023-04-24T14:17:19.772Z,4.38
2023-04-24T14:42:30.630Z,4.72
2023-04-24T15:18:12.738Z,5.20
2023-04-24T15:48:34.391Z,6.22
2023-04-24T16:18:44.168Z,5.40
2023-04-24T16:44:13.918Z,5.70
2023-04-24T17:04:36.010Z,5.60
2023-04-24T17:24:54.053Z,6.53
2023-04-24T17:29:14.366Z,7.70
2023-04-24T18:40:52.505Z,6.13
2023-04-24T19:10:36.707Z,7.00
2023-04-24T19:31:27.014Z,7.10
2023-04-24T20:52:37.052Z,9.10
2023-04-24T21:22:25.140Z,10.10
2023-04-24T21:43:05.885Z,9.87
2023-04-24T22:18:46.527Z,11.57
2023-04-24T22:49:11.619Z,12.70
2023-04-24T23:24:03.975Z,14.00
2023-04-24T23:40:05.945Z,15.77
2023-04-24T23:44:14.200Z,15.40
